sensor_id;sensor_type;location;lat;lon;timestamp;P1;durP1;ratioP1;P2;durP2;ratioP2
11346;SDS011;5728;42.722;23.258;2023-04-03T00:00:38;4.60;;;2.07;;
11346;SDS011;5728;42.722;23.258;2023-04-03T00:03:05;2.77;;;2.00;;
11346;SDS011;5728;42.722;23.258;2023-04-03T00:05:32;2.83;;;1.60;;
11346;SDS011;5728;42.722;23.258;2023-04-03T00:07:59;2.13;;;1.90;;
11346;SDS011;5728;42.722;23.258;2023-04-03T00:10:28;1.87;;;1.67;;
11346;SDS011;5728;42.722;23.258;2023-04-03T00:12:55;2.43;;;1.83;;
11346;SDS011;5728;42.722;23.258;2023-04-03T00:15:22;2.67;;;1.80;;
11346;SDS011;5728;42.722;23.258;2023-04-03T00:17:49;6.20;;;1.97;;
11346;SDS011;5728;42.722;23.258;2023-04-03T00:20:15;2.33;;;2.07;;
11346;SDS011;5728;42.722;23.258;2023-04-03T00:22:42;2.33;;;2.13;;
11346;SDS011;5728;42.722;23.258;2023-04-03T00:25:09;4.17;;;2.03;;
11346;SDS011;5728;42.722;23.258;2023-04-03T00:27:38;2.03;;;1.90;;
11346;SDS011;5728;42.722;23.258;2023-04-03T00:30:06;7.50;;;4.33;;
11346;SDS011;5728;42.722;23.258;2023-04-03T00:32:35;10.73;;;5.93;;
11346;SDS011;5728;42.722;23.258;2023-04-03T00:35:01;13.90;;;6.20;;
11346;SDS011;5728;42.722;23.258;2023-04-03T00:37:28;10.33;;;5.20;;
11346;SDS011;5728;42.722;23.258;2023-04-03T00:39:55;7.37;;;4.23;;
11346;SDS011;5728;42.722;23.258;2023-04-03T00:42:22;7.17;;;4.67;;
11346;SDS011;5728;42.722;23.258;2023-04-03T00:47:51;11.10;;;4.60;;
11346;SDS011;5728;42.722;23.258;2023-04-03T00:50:18;6.53;;;4.40;;
11346;SDS011;5728;42.722;23.258;2023-04-03T00:52:45;7.47;;;4.53;;
11346;SDS011;5728;42.722;23.258;2023-04-03T00:55:14;8.73;;;4.23;;
11346;SDS011;5728;42.722;23.258;2023-04-03T00:57:41;7.13;;;4.17;;
11346;SDS011;5728;42.722;23.258;2023-04-03T01:00:10;5.67;;;4.30;;
11346;SDS011;5728;42.722;23.258;2023-04-03T01:02:40;10.90;;;4.50;;
11346;SDS011;5728;42.722;23.258;2023-04-03T01:05:06;7.20;;;4.30;;
11346;SDS011;5728;42.722;23.258;2023-04-03T01:07:34;7.53;;;4.63;;
11346;SDS011;5728;42.722;23.258;2023-04-03T01:10:04;5.07;;;3.93;;
11346;SDS011;5728;42.722;23.258;2023-04-03T01:12:33;10.80;;;4.57;;
11346;SDS011;5728;42.722;23.258;2023-04-03T01:15:04;8.40;;;3.70;;
11346;SDS011;5728;42.722;23.258;2023-04-03T01:17:33;6.30;;;4.13;;
11346;SDS011;5728;42.722;23.258;2023-04-03T01:20:10;4.70;;;2.93;;
11346;SDS011;5728;42.722;23.258;2023-04-03T01:23:06;6.13;;;3.40;;
11346;SDS011;5728;42.722;23.258;2023-04-03T01:25:53;4.87;;;3.73;;
11346;SDS011;5728;42.722;23.258;2023-04-03T01:28:22;12.50;;;3.07;;
11346;SDS011;5728;42.722;23.258;2023-04-03T01:30:50;6.50;;;3.47;;
11346;SDS011;5728;42.722;23.258;2023-04-03T01:33:23;10.90;;;4.03;;
11346;SDS011;5728;42.722;23.258;2023-04-03T01:35:50;9.20;;;3.40;;
11346;SDS011;5728;42.722;23.258;2023-04-03T01:38:17;6.37;;;3.60;;
11346;SDS011;5728;42.722;23.258;2023-04-03T01:40:43;4.20;;;3.33;;
11346;SDS011;5728;42.722;23.258;2023-04-03T01:43:10;6.10;;;3.57;;
11346;SDS011;5728;42.722;23.258;2023-04-03T01:45:37;5.80;;;3.20;;
11346;SDS011;5728;42.722;23.258;2023-04-03T01:48:04;4.50;;;2.80;;
11346;SDS011;5728;42.722;23.258;2023-04-03T01:50:32;3.03;;;2.63;;
11346;SDS011;5728;42.722;23.258;2023-04-03T01:52:59;4.03;;;2.57;;
11346;SDS011;5728;42.722;23.258;2023-04-03T01:55:25;3.80;;;2.73;;
11346;SDS011;5728;42.722;23.258;2023-04-03T01:57:52;4.47;;;2.17;;
11346;SDS011;5728;42.722;23.258;2023-04-03T02:00:19;3.67;;;2.50;;
11346;SDS011;5728;42.722;23.258;2023-04-03T02:02:46;2.40;;;2.07;;
11346;SDS011;5728;42.722;23.258;2023-04-03T02:05:13;4.03;;;2.70;;
11346;SDS011;5728;42.722;23.258;2023-04-03T02:07:41;3.43;;;2.60;;
11346;SDS011;5728;42.722;23.258;2023-04-03T02:10:08;4.13;;;2.90;;
11346;SDS011;5728;42.722;23.258;2023-04-03T02:12:35;2.63;;;2.43;;
11346;SDS011;5728;42.722;23.258;2023-04-03T02:15:02;3.63;;;2.53;;
11346;SDS011;5728;42.722;23.258;2023-04-03T02:17:29;5.13;;;2.73;;
11346;SDS011;5728;42.722;23.258;2023-04-03T02:19:56;3.93;;;2.53;;
11346;SDS011;5728;42.722;23.258;2023-04-03T02:22:23;3.03;;;2.50;;
11346;SDS011;5728;42.722;23.258;2023-04-03T02:24:51;4.97;;;2.50;;
11346;SDS011;5728;42.722;23.258;2023-04-03T02:27:18;3.47;;;2.77;;
11346;SDS011;5728;42.722;23.258;2023-04-03T02:29:44;3.03;;;2.30;;
11346;SDS011;5728;42.722;23.258;2023-04-03T02:32:11;6.83;;;3.70;;
11346;SDS011;5728;42.722;23.258;2023-04-03T02:34:38;5.77;;;3.87;;
11346;SDS011;5728;42.722;23.258;2023-04-03T02:37:04;10.93;;;5.13;;
11346;SDS011;5728;42.722;23.258;2023-04-03T02:39:31;11.00;;;5.57;;
11346;SDS011;5728;42.722;23.258;2023-04-03T02:41:59;8.33;;;3.67;;
11346;SDS011;5728;42.722;23.258;2023-04-03T02:44:26;4.50;;;3.17;;
11346;SDS011;5728;42.722;23.258;2023-04-03T02:46:53;4.17;;;2.90;;
11346;SDS011;5728;42.722;23.258;2023-04-03T02:49:19;10.33;;;3.27;;
11346;SDS011;5728;42.722;23.258;2023-04-03T02:51:46;3.87;;;2.67;;
11346;SDS011;5728;42.722;23.258;2023-04-03T02:54:13;4.20;;;2.60;;
11346;SDS011;5728;42.722;23.258;2023-04-03T02:56:40;13.73;;;3.67;;
11346;SDS011;5728;42.722;23.258;2023-04-03T02:59:08;6.50;;;3.50;;
11346;SDS011;5728;42.722;23.258;2023-04-03T03:01:35;3.77;;;2.97;;
11346;SDS011;5728;42.722;23.258;2023-04-03T03:04:01;6.07;;;2.90;;
11346;SDS011;5728;42.722;23.258;2023-04-03T03:06:28;7.97;;;3.70;;
11346;SDS011;5728;42.722;23.258;2023-04-03T03:08:55;4.53;;;3.00;;
11346;SDS011;5728;42.722;23.258;2023-04-03T03:11:22;3.50;;;3.03;;
11346;SDS011;5728;42.722;23.258;2023-04-03T03:13:48;6.50;;;4.07;;
11346;SDS011;5728;42.722;23.258;2023-04-03T03:16:16;6.63;;;4.03;;
11346;SDS011;5728;42.722;23.258;2023-04-03T03:18:43;10.70;;;4.53;;
11346;SDS011;5728;42.722;23.258;2023-04-03T03:21:10;5.03;;;3.00;;
11346;SDS011;5728;42.722;23.258;2023-04-03T03:23:37;4.10;;;3.17;;
11346;SDS011;5728;42.722;23.258;2023-04-03T03:26:05;5.47;;;3.40;;
11346;SDS011;5728;42.722;23.258;2023-04-03T03:28:34;5.90;;;3.37;;
11346;SDS011;5728;42.722;23.258;2023-04-03T03:31:02;8.90;;;4.87;;
11346;SDS011;5728;42.722;23.258;2023-04-03T03:33:31;8.40;;;4.70;;
11346;SDS011;5728;42.722;23.258;2023-04-03T03:35:59;14.03;;;4.60;;
11346;SDS011;5728;42.722;23.258;2023-04-03T03:38:26;8.03;;;4.33;;
11346;SDS011;5728;42.722;23.258;2023-04-03T03:40:53;17.07;;;5.23;;
11346;SDS011;5728;42.722;23.258;2023-04-03T03:43:20;8.50;;;4.20;;
11346;SDS011;5728;42.722;23.258;2023-04-03T03:45:49;10.97;;;4.40;;
11346;SDS011;5728;42.722;23.258;2023-04-03T03:48:17;11.43;;;5.17;;
11346;SDS011;5728;42.722;23.258;2023-04-03T03:50:45;12.47;;;5.27;;
11346;SDS011;5728;42.722;23.258;2023-04-03T03:53:12;11.93;;;5.43;;
11346;SDS011;5728;42.722;23.258;2023-04-03T03:55:38;8.73;;;4.97;;
11346;SDS011;5728;42.722;23.258;2023-04-03T03:58:05;6.60;;;4.67;;
11346;SDS011;5728;42.722;23.258;2023-04-03T04:00:32;9.43;;;5.67;;
11346;SDS011;5728;42.722;23.258;2023-04-03T04:02:58;12.03;;;5.60;;
11346;SDS011;5728;42.722;23.258;2023-04-03T04:05:25;11.80;;;5.67;;
11346;SDS011;5728;42.722;23.258;2023-04-03T04:07:53;11.67;;;5.13;;
11346;SDS011;5728;42.722;23.258;2023-04-03T04:10:20;10.33;;;5.87;;
11346;SDS011;5728;42.722;23.258;2023-04-03T04:12:47;7.43;;;4.67;;
11346;SDS011;5728;42.722;23.258;2023-04-03T04:15:16;7.93;;;5.00;;
11346;SDS011;5728;42.722;23.258;2023-04-03T04:17:43;7.27;;;4.77;;
11346;SDS011;5728;42.722;23.258;2023-04-03T04:20:10;9.53;;;5.20;;
11346;SDS011;5728;42.722;23.258;2023-04-03T04:22:37;7.33;;;4.87;;
11346;SDS011;5728;42.722;23.258;2023-04-03T04:25:06;13.67;;;5.53;;
11346;SDS011;5728;42.722;23.258;2023-04-03T04:27:33;15.73;;;5.60;;
11346;SDS011;5728;42.722;23.258;2023-04-03T04:30:02;9.17;;;5.00;;
11346;SDS011;5728;42.722;23.258;2023-04-03T04:32:29;10.87;;;6.00;;
11346;SDS011;5728;42.722;23.258;2023-04-03T04:34:56;8.50;;;5.80;;
11346;SDS011;5728;42.722;23.258;2023-04-03T04:37:23;8.53;;;5.37;;
11346;SDS011;5728;42.722;23.258;2023-04-03T04:39:50;9.43;;;5.60;;
11346;SDS011;5728;42.722;23.258;2023-04-03T04:42:18;9.90;;;6.00;;
11346;SDS011;5728;42.722;23.258;2023-04-03T04:44:44;10.60;;;5.33;;
11346;SDS011;5728;42.722;23.258;2023-04-03T04:47:11;10.20;;;5.20;;
11346;SDS011;5728;42.722;23.258;2023-04-03T04:49:38;19.27;;;6.13;;
11346;SDS011;5728;42.722;23.258;2023-04-03T04:52:04;12.83;;;5.60;;
11346;SDS011;5728;42.722;23.258;2023-04-03T04:54:31;11.87;;;5.40;;
11346;SDS011;5728;42.722;23.258;2023-04-03T04:56:58;18.60;;;6.30;;
11346;SDS011;5728;42.722;23.258;2023-04-03T04:59:26;9.37;;;5.40;;
11346;SDS011;5728;42.722;23.258;2023-04-03T05:01:53;7.90;;;5.50;;
11346;SDS011;5728;42.722;23.258;2023-04-03T05:04:19;9.77;;;5.63;;
11346;SDS011;5728;42.722;23.258;2023-04-03T05:06:46;27.67;;;8.20;;
11346;SDS011;5728;42.722;23.258;2023-04-03T05:09:13;26.97;;;6.80;;
11346;SDS011;5728;42.722;23.258;2023-04-03T05:11:40;18.10;;;7.33;;
11346;SDS011;5728;42.722;23.258;2023-04-03T05:14:08;21.00;;;7.60;;
11346;SDS011;5728;42.722;23.258;2023-04-03T05:16:36;18.53;;;8.00;;
11346;SDS011;5728;42.722;23.258;2023-04-03T05:19:02;17.77;;;7.67;;
11346;SDS011;5728;42.722;23.258;2023-04-03T05:21:30;19.43;;;7.33;;
11346;SDS011;5728;42.722;23.258;2023-04-03T05:23:57;17.63;;;6.87;;
11346;SDS011;5728;42.722;23.258;2023-04-03T05:26:27;10.30;;;5.27;;
11346;SDS011;5728;42.722;23.258;2023-04-03T05:28:54;12.07;;;6.40;;
11346;SDS011;5728;42.722;23.258;2023-04-03T05:31:22;14.77;;;6.73;;
11346;SDS011;5728;42.722;23.258;2023-04-03T05:33:50;12.40;;;6.10;;
11346;SDS011;5728;42.722;23.258;2023-04-03T05:36:17;17.97;;;8.07;;
11346;SDS011;5728;42.722;23.258;2023-04-03T05:38:44;19.43;;;7.10;;
11346;SDS011;5728;42.722;23.258;2023-04-03T05:41:11;29.00;;;7.70;;
11346;SDS011;5728;42.722;23.258;2023-04-03T05:43:37;15.83;;;6.63;;
11346;SDS011;5728;42.722;23.258;2023-04-03T05:46:07;15.87;;;7.73;;
11346;SDS011;5728;42.722;23.258;2023-04-03T05:48:36;18.00;;;8.53;;
11346;SDS011;5728;42.722;23.258;2023-04-03T05:51:05;22.23;;;8.27;;
11346;SDS011;5728;42.722;23.258;2023-04-03T05:53:33;19.77;;;7.37;;
11346;SDS011;5728;42.722;23.258;2023-04-03T05:56:02;10.20;;;6.33;;
11346;SDS011;5728;42.722;23.258;2023-04-03T05:58:29;12.00;;;5.80;;
11346;SDS011;5728;42.722;23.258;2023-04-03T06:00:56;10.93;;;5.50;;
11346;SDS011;5728;42.722;23.258;2023-04-03T06:03:23;8.90;;;4.03;;
11346;SDS011;5728;42.722;23.258;2023-04-03T06:05:50;5.00;;;3.53;;
11346;SDS011;5728;42.722;23.258;2023-04-03T06:08:18;5.77;;;3.73;;
11346;SDS011;5728;42.722;23.258;2023-04-03T06:10:45;4.87;;;3.67;;
11346;SDS011;5728;42.722;23.258;2023-04-03T06:13:11;7.83;;;4.60;;
11346;SDS011;5728;42.722;23.258;2023-04-03T06:15:38;9.10;;;4.10;;
11346;SDS011;5728;42.722;23.258;2023-04-03T06:18:05;7.90;;;4.23;;
11346;SDS011;5728;42.722;23.258;2023-04-03T06:20:33;12.20;;;4.43;;
11346;SDS011;5728;42.722;23.258;2023-04-03T06:23:00;11.50;;;4.93;;
11346;SDS011;5728;42.722;23.258;2023-04-03T06:25:28;13.37;;;6.13;;
11346;SDS011;5728;42.722;23.258;2023-04-03T06:27:56;9.43;;;6.20;;
11346;SDS011;5728;42.722;23.258;2023-04-03T06:30:23;10.80;;;5.97;;
11346;SDS011;5728;42.722;23.258;2023-04-03T06:32:50;11.43;;;6.03;;
11346;SDS011;5728;42.722;23.258;2023-04-03T06:35:17;9.57;;;6.20;;
11346;SDS011;5728;42.722;23.258;2023-04-03T06:37:44;11.43;;;6.47;;
11346;SDS011;5728;42.722;23.258;2023-04-03T06:40:12;11.37;;;6.70;;
11346;SDS011;5728;42.722;23.258;2023-04-03T06:42:45;11.40;;;5.60;;
11346;SDS011;5728;42.722;23.258;2023-04-03T06:45:12;11.60;;;6.77;;
11346;SDS011;5728;42.722;23.258;2023-04-03T06:47:39;7.13;;;5.10;;
11346;SDS011;5728;42.722;23.258;2023-04-03T06:50:06;17.40;;;7.17;;
11346;SDS011;5728;42.722;23.258;2023-04-03T06:52:34;10.47;;;5.63;;
11346;SDS011;5728;42.722;23.258;2023-04-03T06:55:01;13.97;;;6.97;;
11346;SDS011;5728;42.722;23.258;2023-04-03T06:57:28;12.37;;;6.20;;
11346;SDS011;5728;42.722;23.258;2023-04-03T06:59:56;11.17;;;6.17;;
11346;SDS011;5728;42.722;23.258;2023-04-03T07:02:22;10.53;;;6.20;;
11346;SDS011;5728;42.722;23.258;2023-04-03T07:04:49;10.80;;;5.17;;
11346;SDS011;5728;42.722;23.258;2023-04-03T07:07:16;15.40;;;6.60;;
11346;SDS011;5728;42.722;23.258;2023-04-03T07:09:43;17.50;;;6.47;;
11346;SDS011;5728;42.722;23.258;2023-04-03T07:12:11;12.43;;;6.87;;
11346;SDS011;5728;42.722;23.258;2023-04-03T07:14:38;9.20;;;5.13;;
11346;SDS011;5728;42.722;23.258;2023-04-03T07:17:06;7.97;;;5.20;;
11346;SDS011;5728;42.722;23.258;2023-04-03T07:19:33;8.07;;;5.20;;
11346;SDS011;5728;42.722;23.258;2023-04-03T07:22:00;9.63;;;5.17;;
11346;SDS011;5728;42.722;23.258;2023-04-03T07:24:28;8.87;;;4.57;;
11346;SDS011;5728;42.722;23.258;2023-04-03T07:26:55;8.87;;;5.20;;
11346;SDS011;5728;42.722;23.258;2023-04-03T07:29:22;5.83;;;4.40;;
11346;SDS011;5728;42.722;23.258;2023-04-03T07:31:49;8.60;;;4.40;;
11346;SDS011;5728;42.722;23.258;2023-04-03T07:34:17;8.17;;;4.17;;
11346;SDS011;5728;42.722;23.258;2023-04-03T07:36:43;12.07;;;4.87;;
11346;SDS011;5728;42.722;23.258;2023-04-03T07:39:10;5.67;;;3.80;;
11346;SDS011;5728;42.722;23.258;2023-04-03T07:41:37;7.80;;;3.80;;
11346;SDS011;5728;42.722;23.258;2023-04-03T07:44:04;7.20;;;4.87;;
11346;SDS011;5728;42.722;23.258;2023-04-03T07:46:34;5.20;;;4.03;;
11346;SDS011;5728;42.722;23.258;2023-04-03T07:49:01;5.47;;;3.87;;
11346;SDS011;5728;42.722;23.258;2023-04-03T07:51:29;4.57;;;2.97;;
11346;SDS011;5728;42.722;23.258;2023-04-03T07:53:56;8.03;;;3.57;;
11346;SDS011;5728;42.722;23.258;2023-04-03T07:56:23;5.93;;;3.47;;
11346;SDS011;5728;42.722;23.258;2023-04-03T07:58:51;5.63;;;3.77;;
11346;SDS011;5728;42.722;23.258;2023-04-03T08:01:18;10.93;;;4.73;;
11346;SDS011;5728;42.722;23.258;2023-04-03T08:03:45;11.60;;;4.60;;
11346;SDS011;5728;42.722;23.258;2023-04-03T08:06:12;5.03;;;4.13;;
11346;SDS011;5728;42.722;23.258;2023-04-03T08:08:41;14.17;;;5.13;;
11346;SDS011;5728;42.722;23.258;2023-04-03T08:11:09;9.90;;;4.80;;
11346;SDS011;5728;42.722;23.258;2023-04-03T08:13:36;8.90;;;4.87;;
11346;SDS011;5728;42.722;23.258;2023-04-03T08:16:10;14.40;;;5.13;;
11346;SDS011;5728;42.722;23.258;2023-04-03T08:18:38;12.53;;;5.10;;
11346;SDS011;5728;42.722;23.258;2023-04-03T08:21:05;10.43;;;5.53;;
11346;SDS011;5728;42.722;23.258;2023-04-03T08:23:33;12.50;;;5.00;;
11346;SDS011;5728;42.722;23.258;2023-04-03T08:26:06;8.30;;;5.10;;
11346;SDS011;5728;42.722;23.258;2023-04-03T08:28:33;9.37;;;5.17;;
11346;SDS011;5728;42.722;23.258;2023-04-03T08:31:04;9.57;;;5.90;;
11346;SDS011;5728;42.722;23.258;2023-04-03T08:33:32;12.27;;;6.13;;
11346;SDS011;5728;42.722;23.258;2023-04-03T08:36:00;11.77;;;6.57;;
11346;SDS011;5728;42.722;23.258;2023-04-03T08:38:28;14.60;;;7.00;;
11346;SDS011;5728;42.722;23.258;2023-04-03T08:41:07;16.90;;;7.47;;
11346;SDS011;5728;42.722;23.258;2023-04-03T08:43:43;11.23;;;7.60;;
11346;SDS011;5728;42.722;23.258;2023-04-03T08:46:22;9.43;;;6.30;;
11346;SDS011;5728;42.722;23.258;2023-04-03T08:48:57;11.33;;;6.67;;
11346;SDS011;5728;42.722;23.258;2023-04-03T08:51:25;15.77;;;7.07;;
11346;SDS011;5728;42.722;23.258;2023-04-03T08:53:55;10.50;;;6.27;;
11346;SDS011;5728;42.722;23.258;2023-04-03T08:56:27;11.30;;;6.57;;
11346;SDS011;5728;42.722;23.258;2023-04-03T08:58:55;13.40;;;6.40;;
11346;SDS011;5728;42.722;23.258;2023-04-03T09:01:24;15.40;;;7.87;;
11346;SDS011;5728;42.722;23.258;2023-04-03T09:03:53;11.53;;;6.70;;
11346;SDS011;5728;42.722;23.258;2023-04-03T09:06:21;15.13;;;6.97;;
11346;SDS011;5728;42.722;23.258;2023-04-03T09:08:50;9.53;;;6.37;;
11346;SDS011;5728;42.722;23.258;2023-04-03T09:11:23;14.00;;;6.80;;
11346;SDS011;5728;42.722;23.258;2023-04-03T09:13:57;13.10;;;7.20;;
11346;SDS011;5728;42.722;23.258;2023-04-03T09:16:31;15.77;;;7.40;;
11346;SDS011;5728;42.722;23.258;2023-04-03T09:19:07;24.00;;;8.73;;
11346;SDS011;5728;42.722;23.258;2023-04-03T09:21:45;15.20;;;7.53;;
11346;SDS011;5728;42.722;23.258;2023-04-03T09:24:12;16.67;;;7.53;;
11346;SDS011;5728;42.722;23.258;2023-04-03T09:26:42;13.70;;;7.93;;
11346;SDS011;5728;42.722;23.258;2023-04-03T09:29:16;15.88;;;8.93;;
11346;SDS011;5728;42.722;23.258;2023-04-03T09:31:46;18.67;;;9.88;;
11346;SDS011;5728;42.722;23.258;2023-04-03T09:34:18;18.77;;;10.73;;
11346;SDS011;5728;42.722;23.258;2023-04-03T09:36:49;19.75;;;10.73;;
11346;SDS011;5728;42.722;23.258;2023-04-03T09:39:19;16.27;;;8.60;;
11346;SDS011;5728;42.722;23.258;2023-04-03T09:41:59;17.88;;;9.05;;
11346;SDS011;5728;42.722;23.258;2023-04-03T09:44:29;17.25;;;8.20;;
11346;SDS011;5728;42.722;23.258;2023-04-03T09:46:57;14.68;;;8.45;;
11346;SDS011;5728;42.722;23.258;2023-04-03T09:49:25;20.20;;;10.13;;
11346;SDS011;5728;42.722;23.258;2023-04-03T09:51:52;20.50;;;9.48;;
11346;SDS011;5728;42.722;23.258;2023-04-03T09:57:08;15.38;;;9.60;;
11346;SDS011;5728;42.722;23.258;2023-04-03T09:59:40;14.23;;;7.10;;
11346;SDS011;5728;42.722;23.258;2023-04-03T10:05:03;15.52;;;10.23;;
11346;SDS011;5728;42.722;23.258;2023-04-03T10:07:33;20.73;;;10.05;;
11346;SDS011;5728;42.722;23.258;2023-04-03T10:10:03;25.95;;;13.25;;
11346;SDS011;5728;42.722;23.258;2023-04-03T10:12:43;19.58;;;10.13;;
11346;SDS011;5728;42.722;23.258;2023-04-03T10:15:13;23.45;;;9.27;;
11346;SDS011;5728;42.722;23.258;2023-04-03T10:17:47;11.00;;;7.40;;
11346;SDS011;5728;42.722;23.258;2023-04-03T10:20:26;10.63;;;7.78;;
11346;SDS011;5728;42.722;23.258;2023-04-03T10:23:01;21.88;;;8.50;;
11346;SDS011;5728;42.722;23.258;2023-04-03T10:25:40;19.30;;;9.30;;
11346;SDS011;5728;42.722;23.258;2023-04-03T10:28:14;17.95;;;8.77;;
11346;SDS011;5728;42.722;23.258;2023-04-03T10:30:50;17.33;;;8.15;;
11346;SDS011;5728;42.722;23.258;2023-04-03T10:33:36;11.98;;;6.32;;
11346;SDS011;5728;42.722;23.258;2023-04-03T10:36:12;17.98;;;6.32;;
11346;SDS011;5728;42.722;23.258;2023-04-03T10:38:50;12.05;;;5.00;;
11346;SDS011;5728;42.722;23.258;2023-04-03T10:41:27;12.27;;;4.70;;
11346;SDS011;5728;42.722;23.258;2023-04-03T10:44:09;11.27;;;6.37;;
11346;SDS011;5728;42.722;23.258;2023-04-03T10:46:47;11.23;;;6.40;;
11346;SDS011;5728;42.722;23.258;2023-04-03T10:49:19;9.53;;;5.97;;
11346;SDS011;5728;42.722;23.258;2023-04-03T10:51:56;13.07;;;6.13;;
11346;SDS011;5728;42.722;23.258;2023-04-03T10:54:31;12.47;;;4.60;;
11346;SDS011;5728;42.722;23.258;2023-04-03T10:57:04;10.67;;;4.77;;
11346;SDS011;5728;42.722;23.258;2023-04-03T10:59:35;7.57;;;3.70;;
11346;SDS011;5728;42.722;23.258;2023-04-03T11:02:07;8.77;;;4.40;;
11346;SDS011;5728;42.722;23.258;2023-04-03T11:04:44;9.77;;;5.03;;
11346;SDS011;5728;42.722;23.258;2023-04-03T11:07:18;6.90;;;4.30;;
11346;SDS011;5728;42.722;23.258;2023-04-03T11:09:48;5.20;;;3.60;;
11346;SDS011;5728;42.722;23.258;2023-04-03T11:12:18;8.57;;;3.87;;
11346;SDS011;5728;42.722;23.258;2023-04-03T11:14:51;4.87;;;3.80;;
11346;SDS011;5728;42.722;23.258;2023-04-03T11:17:23;5.83;;;4.10;;
11346;SDS011;5728;42.722;23.258;2023-04-03T11:19:57;7.00;;;4.10;;
11346;SDS011;5728;42.722;23.258;2023-04-03T11:22:28;8.97;;;3.73;;
11346;SDS011;5728;42.722;23.258;2023-04-03T11:25:02;6.77;;;4.10;;
11346;SDS011;5728;42.722;23.258;2023-04-03T11:27:38;4.00;;;3.50;;
11346;SDS011;5728;42.722;23.258;2023-04-03T11:30:09;6.03;;;3.67;;
11346;SDS011;5728;42.722;23.258;2023-04-03T11:35:50;4.23;;;3.33;;
11346;SDS011;5728;42.722;23.258;2023-04-03T11:38:21;6.60;;;3.03;;
11346;SDS011;5728;42.722;23.258;2023-04-03T11:40:53;4.40;;;3.17;;
11346;SDS011;5728;42.722;23.258;2023-04-03T11:43:22;6.23;;;3.80;;
11346;SDS011;5728;42.722;23.258;2023-04-03T11:45:55;4.00;;;3.20;;
11346;SDS011;5728;42.722;23.258;2023-04-03T11:48:44;3.60;;;2.90;;
11346;SDS011;5728;42.722;23.258;2023-04-03T12:03:56;7.00;;;3.80;;
11346;SDS011;5728;42.722;23.258;2023-04-03T12:12:28;8.53;;;4.23;;
11346;SDS011;5728;42.722;23.258;2023-04-03T12:15:11;7.83;;;4.67;;
11346;SDS011;5728;42.722;23.258;2023-04-03T12:17:45;5.17;;;4.03;;
11346;SDS011;5728;42.722;23.258;2023-04-03T12:23:27;4.70;;;3.60;;
11346;SDS011;5728;42.722;23.258;2023-04-03T12:26:01;8.00;;;4.73;;
11346;SDS011;5728;42.722;23.258;2023-04-03T12:28:35;3.80;;;3.50;;
11346;SDS011;5728;42.722;23.258;2023-04-03T12:31:05;3.57;;;2.80;;
11346;SDS011;5728;42.722;23.258;2023-04-03T12:33:38;3.47;;;3.10;;
11346;SDS011;5728;42.722;23.258;2023-04-03T12:36:23;4.03;;;3.10;;
11346;SDS011;5728;42.722;23.258;2023-04-03T12:39:02;7.20;;;3.40;;
11346;SDS011;5728;42.722;23.258;2023-04-03T12:42:02;3.97;;;2.97;;
11346;SDS011;5728;42.722;23.258;2023-04-03T12:44:44;4.47;;;3.13;;
11346;SDS011;5728;42.722;23.258;2023-04-03T12:47:26;3.70;;;2.73;;
11346;SDS011;5728;42.722;23.258;2023-04-03T12:49:57;2.97;;;2.70;;
11346;SDS011;5728;42.722;23.258;2023-04-03T12:52:30;3.53;;;3.10;;
11346;SDS011;5728;42.722;23.258;2023-04-03T12:55:03;3.70;;;3.20;;
11346;SDS011;5728;42.722;23.258;2023-04-03T12:57:42;6.77;;;2.87;;
11346;SDS011;5728;42.722;23.258;2023-04-03T13:00:27;3.57;;;3.07;;
11346;SDS011;5728;42.722;23.258;2023-04-03T13:02:57;3.07;;;2.77;;
11346;SDS011;5728;42.722;23.258;2023-04-03T13:05:24;5.07;;;3.23;;
11346;SDS011;5728;42.722;23.258;2023-04-03T13:07:52;5.87;;;4.37;;
11346;SDS011;5728;42.722;23.258;2023-04-03T13:10:25;5.47;;;3.63;;
11346;SDS011;5728;42.722;23.258;2023-04-03T13:12:53;5.10;;;4.47;;
11346;SDS011;5728;42.722;23.258;2023-04-03T13:15:21;11.57;;;4.10;;
11346;SDS011;5728;42.722;23.258;2023-04-03T13:17:51;7.80;;;4.20;;
11346;SDS011;5728;42.722;23.258;2023-04-03T13:20:19;5.23;;;4.73;;
11346;SDS011;5728;42.722;23.258;2023-04-03T13:22:50;5.10;;;4.60;;
11346;SDS011;5728;42.722;23.258;2023-04-03T13:25:21;9.40;;;4.90;;
11346;SDS011;5728;42.722;23.258;2023-04-03T13:27:52;7.97;;;4.97;;
11346;SDS011;5728;42.722;23.258;2023-04-03T13:30:24;7.23;;;5.17;;
11346;SDS011;5728;42.722;23.258;2023-04-03T13:32:53;7.63;;;4.83;;
11346;SDS011;5728;42.722;23.258;2023-04-03T13:35:25;6.67;;;5.43;;
11346;SDS011;5728;42.722;23.258;2023-04-03T13:37:58;11.80;;;5.90;;
11346;SDS011;5728;42.722;23.258;2023-04-03T13:40:26;8.13;;;6.13;;
11346;SDS011;5728;42.722;23.258;2023-04-03T13:43:05;6.90;;;5.43;;
11346;SDS011;5728;42.722;23.258;2023-04-03T13:45:53;7.77;;;6.03;;
11346;SDS011;5728;42.722;23.258;2023-04-03T13:48:25;4.93;;;4.40;;
11346;SDS011;5728;42.722;23.258;2023-04-03T13:50:57;5.93;;;4.67;;
11346;SDS011;5728;42.722;23.258;2023-04-03T13:53:27;6.57;;;4.77;;
11346;SDS011;5728;42.722;23.258;2023-04-03T13:56:05;7.10;;;4.70;;
11346;SDS011;5728;42.722;23.258;2023-04-03T13:58:34;6.37;;;4.80;;
11346;SDS011;5728;42.722;23.258;2023-04-03T14:01:07;7.00;;;5.73;;
11346;SDS011;5728;42.722;23.258;2023-04-03T14:03:39;8.57;;;5.97;;
11346;SDS011;5728;42.722;23.258;2023-04-03T14:06:10;7.70;;;6.00;;
11346;SDS011;5728;42.722;23.258;2023-04-03T14:08:38;6.87;;;5.63;;
11346;SDS011;5728;42.722;23.258;2023-04-03T14:11:08;7.50;;;6.73;;
11346;SDS011;5728;42.722;23.258;2023-04-03T14:13:40;9.10;;;7.33;;
11346;SDS011;5728;42.722;23.258;2023-04-03T14:16:08;7.40;;;6.40;;
11346;SDS011;5728;42.722;23.258;2023-04-03T14:18:39;9.43;;;7.20;;
11346;SDS011;5728;42.722;23.258;2023-04-03T14:21:06;9.13;;;7.07;;
11346;SDS011;5728;42.722;23.258;2023-04-03T14:23:33;9.70;;;7.23;;
11346;SDS011;5728;42.722;23.258;2023-04-03T14:26:00;7.93;;;6.70;;
11346;SDS011;5728;42.722;23.258;2023-04-03T14:28:27;10.10;;;7.43;;
11346;SDS011;5728;42.722;23.258;2023-04-03T14:30:55;8.00;;;6.27;;
11346;SDS011;5728;42.722;23.258;2023-04-03T14:33:22;8.10;;;6.70;;
11346;SDS011;5728;42.722;23.258;2023-04-03T14:35:51;7.77;;;6.67;;
11346;SDS011;5728;42.722;23.258;2023-04-03T14:38:23;8.20;;;6.50;;
11346;SDS011;5728;42.722;23.258;2023-04-03T14:40:52;6.77;;;5.40;;
11346;SDS011;5728;42.722;23.258;2023-04-03T14:43:20;7.37;;;5.20;;
11346;SDS011;5728;42.722;23.258;2023-04-03T14:45:47;5.50;;;4.57;;
11346;SDS011;5728;42.722;23.258;2023-04-03T14:48:17;5.10;;;4.57;;
11346;SDS011;5728;42.722;23.258;2023-04-03T14:50:47;5.90;;;4.53;;
11346;SDS011;5728;42.722;23.258;2023-04-03T14:53:17;5.50;;;4.83;;
11346;SDS011;5728;42.722;23.258;2023-04-03T14:55:48;5.07;;;3.93;;
11346;SDS011;5728;42.722;23.258;2023-04-03T14:58:16;6.67;;;5.13;;
11346;SDS011;5728;42.722;23.258;2023-04-03T15:00:44;6.70;;;5.57;;
11346;SDS011;5728;42.722;23.258;2023-04-03T15:03:13;6.10;;;5.30;;
11346;SDS011;5728;42.722;23.258;2023-04-03T15:05:42;9.23;;;5.37;;
11346;SDS011;5728;42.722;23.258;2023-04-03T15:08:17;7.37;;;5.10;;
11346;SDS011;5728;42.722;23.258;2023-04-03T15:10:46;7.57;;;3.70;;
11346;SDS011;5728;42.722;23.258;2023-04-03T15:13:13;5.23;;;3.50;;
11346;SDS011;5728;42.722;23.258;2023-04-03T15:15:40;4.13;;;3.37;;
11346;SDS011;5728;42.722;23.258;2023-04-03T15:18:09;3.73;;;3.37;;
11346;SDS011;5728;42.722;23.258;2023-04-03T15:20:40;6.20;;;3.80;;
11346;SDS011;5728;42.722;23.258;2023-04-03T15:23:10;3.63;;;2.83;;
11346;SDS011;5728;42.722;23.258;2023-04-03T15:25:38;4.37;;;3.60;;
11346;SDS011;5728;42.722;23.258;2023-04-03T15:28:06;4.00;;;3.47;;
11346;SDS011;5728;42.722;23.258;2023-04-03T15:30:36;3.93;;;3.50;;